METAR Formatted Surface Weather Observation
Issued by NWS

Home | Current Version | Previous Version | Text Only | Print | Product List | Glossary On
Versions: 1 2 3 4 5
000
SAUS41 KLWX 301257
MTRNYG
METAR KNYG 301256Z 20007KT 10SM BKN150 27/22 A2993 RMK AO2 SLP137
T02670222



USA.gov is the U.S. government's official web portal to all federal, state and local government web resources and services.